Detall de PIREP

Printer-friendly versionPDF version

[2015/08/22 21:40:00]
Flight IATA:CT1050
Pilot Number:030
Company ICAO:CAT
Aircraft Type:B738/F
PAX:132
Departing Airport: LEMH
Destination Airport: LFKJ
Alternate Airport:LFMN
Online: VATSIM
Route:ISTER UN851 NEGAT
Flight Level:F300
No Slew and time accel
No pause
Crash detect
Detect pilot in Cockpit between each 30 and 45 minutes
21:40 Zero fuel Weight: 91002 Lbs, Fuel Weight: 15994 Lbs
21:40 VATSIM:LEMH 222130Z 14008KT 110V180 9999 FEW025 24/21 Q1013
21:40 VATSIM:LFKJ 222130Z AUTO 04004KT CAVOK 22/16 Q1014
13:15 UTC Jump: added 1 Hour to Log
13:23 Parking Brakes off
13:27 Take-off
13:27 Take off Weight: 106316 Lbs
13:27 Wind: 145º @ 007 Knots Heading: 188º
13:27 POS N39º 51´ 38´´ E004º 13´ 05´´
13:27 Flaps:3 at 175 Knots
13:27 Gear Up: 186 Knots
13:27 Flaps:2 at 196 Knots
13:27 Flaps:0 at 208 Knots
13:35 TOC
13:35 Fuel Weight: 13368 Lb
13:42 Wind:267º@025Knots Heading: 059º Ground Speed: 497 Knots Altitude 30000 ft
13:49 TOD
13:49 Fuel Weight: 11833 Lb
13:57 Wind:265º@003 Knots Heading: 061º Ground Speed: 329 Knots Altitude 8500 ft
14:00 Flaps:3 at 236 Knots
14:06 Flaps:4 at 213 Knots
14:06 Flaps:5 at 211 Knots
14:06 Flaps:4 at 200 Knots
14:09 Gear Down: 179 Knots
14:09 Flaps:5 at 179 Knots
14:09 Flaps:6 at 179 Knots
14:12 Wind:050º@002 Knots Heading: 018º Ground Speed: 185 Knots Altitude 1961 ft
14:13 Flaps:7 at 173 Knots
14:14 TouchDown:Rate -126 ft/min Speed: 133 Knots
14:15 VATSIM:LFKJ 222230Z AUTO 06004KT CAVOK 21/16 Q1014
14:15 Land
14:15 Wind:050º@002 Knots
14:15 Heading: 204º
14:15 Flight Duration: 01:48
14:15 Landing Weight: 100151 Lbs
14:15 POS N41º 55´ 03´´ E008º 47´ 54´´
14:18 Parking brakes on
14:18 Block to Block Duration: 01:55
14:18 Final Fuel: 8899 Lbls
14:18 Spent Fuel: 7094 Lbls
14:18 Flight Length: 287 NM
14:18 TOD Land Length: 122 NM

Exportar CSV

Powered by Drupal - Modified by Danger4k